sensor_id;sensor_type;location;lat;lon;timestamp;temperature;humidity
38622;DHT22;24380;51.132;5.360;2023-04-04T06:34:56;4.20;99.90
38622;DHT22;24380;51.132;5.360;2023-04-04T06:37:24;4.70;99.90
38622;DHT22;24380;51.132;5.360;2023-04-04T06:39:52;5.00;99.90
38622;DHT22;24380;51.132;5.360;2023-04-04T06:42:20;5.30;99.90
38622;DHT22;24380;51.132;5.360;2023-04-04T06:44:48;5.70;99.90
38622;DHT22;24380;51.132;5.360;2023-04-04T06:47:15;6.10;99.90
38622;DHT22;24380;51.132;5.360;2023-04-04T06:49:42;6.60;99.90
38622;DHT22;24380;51.132;5.360;2023-04-04T06:52:10;6.50;99.90
38622;DHT22;24380;51.132;5.360;2023-04-04T06:54:38;7.00;99.90
38622;DHT22;24380;51.132;5.360;2023-04-04T06:57:05;7.40;99.90
38622;DHT22;24380;51.132;5.360;2023-04-04T06:59:33;7.90;99.90
38622;DHT22;24380;51.132;5.360;2023-04-04T07:02:00;8.00;99.90
38622;DHT22;24380;51.132;5.360;2023-04-04T07:04:28;8.10;99.70
38622;DHT22;24380;51.132;5.360;2023-04-04T07:06:57;8.10;99.80
38622;DHT22;24380;51.132;5.360;2023-04-04T07:09:24;8.50;99.80
38622;DHT22;24380;51.132;5.360;2023-04-04T07:11:53;9.00;99.10
38622;DHT22;24380;51.132;5.360;2023-04-04T07:14:21;9.10;98.70
38622;DHT22;24380;51.132;5.360;2023-04-04T07:16:51;9.20;98.20
38622;DHT22;24380;51.132;5.360;2023-04-04T07:19:18;9.10;98.70
38622;DHT22;24380;51.132;5.360;2023-04-04T07:21:47;9.60;98.10
38622;DHT22;24380;51.132;5.360;2023-04-04T07:24:15;9.90;97.90
38622;DHT22;24380;51.132;5.360;2023-04-04T07:26:43;9.40;97.70
38622;DHT22;24380;51.132;5.360;2023-04-04T07:29:10;9.60;97.80
38622;DHT22;24380;51.132;5.360;2023-04-04T07:31:38;9.80;97.00
38622;DHT22;24380;51.132;5.360;2023-04-04T07:34:06;10.30;96.30
38622;DHT22;24380;51.132;5.360;2023-04-04T07:36:34;10.30;95.50
38622;DHT22;24380;51.132;5.360;2023-04-04T07:39:01;10.40;95.50
38622;DHT22;24380;51.132;5.360;2023-04-04T07:41:29;10.50;95.20
38622;DHT22;24380;51.132;5.360;2023-04-04T07:43:56;10.50;95.50
38622;DHT22;24380;51.132;5.360;2023-04-04T07:46:24;10.50;95.40
38622;DHT22;24380;51.132;5.360;2023-04-04T07:48:53;10.90;94.30
38622;DHT22;24380;51.132;5.360;2023-04-04T07:51:21;10.90;95.00
38622;DHT22;24380;51.132;5.360;2023-04-04T07:53:50;10.70;93.70
38622;DHT22;24380;51.132;5.360;2023-04-04T07:56:17;11.20;93.90
38622;DHT22;24380;51.132;5.360;2023-04-04T07:58:45;11.40;93.80
38622;DHT22;24380;51.132;5.360;2023-04-04T08:01:12;12.10;93.00
38622;DHT22;24380;51.132;5.360;2023-04-04T08:03:40;12.50;93.00
38622;DHT22;24380;51.132;5.360;2023-04-04T08:06:08;13.00;90.60
38622;DHT22;24380;51.132;5.360;2023-04-04T08:08:36;13.00;90.30
38622;DHT22;24380;51.132;5.360;2023-04-04T08:11:03;13.20;90.20
38622;DHT22;24380;51.132;5.360;2023-04-04T08:13:31;13.00;88.50
38622;DHT22;24380;51.132;5.360;2023-04-04T08:15:58;12.90;88.70
38622;DHT22;24380;51.132;5.360;2023-04-04T08:18:26;12.80;88.80
38622;DHT22;24380;51.132;5.360;2023-04-04T08:20:53;12.40;89.80
38622;DHT22;24380;51.132;5.360;2023-04-04T08:23:21;11.80;90.70
38622;DHT22;24380;51.132;5.360;2023-04-04T08:25:48;12.10;90.40
38622;DHT22;24380;51.132;5.360;2023-04-04T08:28:17;12.10;90.80
38622;DHT22;24380;51.132;5.360;2023-04-04T08:30:44;12.30;89.80
38622;DHT22;24380;51.132;5.360;2023-04-04T08:33:12;12.80;90.10
38622;DHT22;24380;51.132;5.360;2023-04-04T08:35:40;12.80;88.20
38622;DHT22;24380;51.132;5.360;2023-04-04T08:38:07;12.80;88.10
38622;DHT22;24380;51.132;5.360;2023-04-04T08:40:35;13.00;87.50
38622;DHT22;24380;51.132;5.360;2023-04-04T08:43:05;12.90;89.10
38622;DHT22;24380;51.132;5.360;2023-04-04T08:45:34;12.40;86.00
38622;DHT22;24380;51.132;5.360;2023-04-04T08:48:02;12.70;86.80
38622;DHT22;24380;51.132;5.360;2023-04-04T08:50:31;13.00;86.10
38622;DHT22;24380;51.132;5.360;2023-04-04T08:53:00;12.90;86.70
38622;DHT22;24380;51.132;5.360;2023-04-04T08:55:29;12.40;85.20
38622;DHT22;24380;51.132;5.360;2023-04-04T08:57:57;12.70;87.40
38622;DHT22;24380;51.132;5.360;2023-04-04T09:00:24;13.00;87.00
38622;DHT22;24380;51.132;5.360;2023-04-04T09:03:03;13.60;87.10
38622;DHT22;24380;51.132;5.360;2023-04-04T09:05:29;14.10;85.20
38622;DHT22;24380;51.132;5.360;2023-04-04T09:07:57;14.80;83.70
38622;DHT22;24380;51.132;5.360;2023-04-04T09:10:25;14.40;83.80
38622;DHT22;24380;51.132;5.360;2023-04-04T09:12:55;13.60;84.20
38622;DHT22;24380;51.132;5.360;2023-04-04T09:15:23;14.00;84.20
38622;DHT22;24380;51.132;5.360;2023-04-04T09:17:51;13.90;84.10
38622;DHT22;24380;51.132;5.360;2023-04-04T09:20:36;13.40;83.50
38622;DHT22;24380;51.132;5.360;2023-04-04T09:23:09;13.90;83.00
38622;DHT22;24380;51.132;5.360;2023-04-04T09:25:43;13.90;82.90
38622;DHT22;24380;51.132;5.360;2023-04-04T09:28:12;14.30;83.00
38622;DHT22;24380;51.132;5.360;2023-04-04T09:30:40;14.50;81.90
38622;DHT22;24380;51.132;5.360;2023-04-04T09:33:10;14.30;81.50
38622;DHT22;24380;51.132;5.360;2023-04-04T09:35:40;14.40;80.80
38622;DHT22;24380;51.132;5.360;2023-04-04T09:38:08;14.40;82.30
38622;DHT22;24380;51.132;5.360;2023-04-04T09:40:36;14.40;82.60
38622;DHT22;24380;51.132;5.360;2023-04-04T09:43:06;14.80;80.90
38622;DHT22;24380;51.132;5.360;2023-04-04T09:45:35;14.90;80.40
38622;DHT22;24380;51.132;5.360;2023-04-04T09:48:05;14.90;77.90
38622;DHT22;24380;51.132;5.360;2023-04-04T09:50:38;14.70;79.30
38622;DHT22;24380;51.132;5.360;2023-04-04T09:53:06;14.80;79.10
38622;DHT22;24380;51.132;5.360;2023-04-04T09:55:35;14.50;79.10
38622;DHT22;24380;51.132;5.360;2023-04-04T09:58:11;15.10;79.70
38622;DHT22;24380;51.132;5.360;2023-04-04T10:00:46;15.20;78.00
38622;DHT22;24380;51.132;5.360;2023-04-04T10:03:15;14.90;78.20
38622;DHT22;24380;51.132;5.360;2023-04-04T10:05:44;14.90;78.00
38622;DHT22;24380;51.132;5.360;2023-04-04T10:08:13;15.20;78.60
38622;DHT22;24380;51.132;5.360;2023-04-04T10:10:48;15.70;76.40
38622;DHT22;24380;51.132;5.360;2023-04-04T10:13:31;15.80;76.30
38622;DHT22;24380;51.132;5.360;2023-04-04T10:15:56;15.80;76.50
38622;DHT22;24380;51.132;5.360;2023-04-04T10:18:29;16.00;75.50
38622;DHT22;24380;51.132;5.360;2023-04-04T10:20:59;16.30;74.30
38622;DHT22;24380;51.132;5.360;2023-04-04T10:23:27;16.20;75.60
38622;DHT22;24380;51.132;5.360;2023-04-04T10:25:57;16.50;75.30
38622;DHT22;24380;51.132;5.360;2023-04-04T10:28:26;16.30;74.30
38622;DHT22;24380;51.132;5.360;2023-04-04T10:31:23;15.90;75.70
38622;DHT22;24380;51.132;5.360;2023-04-04T10:34:02;15.70;74.00
38622;DHT22;24380;51.132;5.360;2023-04-04T10:36:43;15.40;74.90
38622;DHT22;24380;51.132;5.360;2023-04-04T10:39:12;15.30;74.70
38622;DHT22;24380;51.132;5.360;2023-04-04T10:41:40;15.60;75.20
38622;DHT22;24380;51.132;5.360;2023-04-04T10:44:29;15.30;73.00
38622;DHT22;24380;51.132;5.360;2023-04-04T10:46:42;15.20;74.60
38622;DHT22;24380;51.132;5.360;2023-04-04T10:49:12;15.40;74.10
38622;DHT22;24380;51.132;5.360;2023-04-04T10:51:40;15.80;75.60
38622;DHT22;24380;51.132;5.360;2023-04-04T10:54:08;15.90;74.50
38622;DHT22;24380;51.132;5.360;2023-04-04T10:56:37;16.10;73.10
38622;DHT22;24380;51.132;5.360;2023-04-04T10:59:12;16.20;72.40
38622;DHT22;24380;51.132;5.360;2023-04-04T11:01:57;16.10;72.40
38622;DHT22;24380;51.132;5.360;2023-04-04T11:04:38;16.10;72.50
38622;DHT22;24380;51.132;5.360;2023-04-04T11:07:12;16.10;73.10
38622;DHT22;24380;51.132;5.360;2023-04-04T11:09:57;16.30;72.90
38622;DHT22;24380;51.132;5.360;2023-04-04T11:12:29;16.20;72.70
38622;DHT22;24380;51.132;5.360;2023-04-04T11:15:07;15.80;73.10
38622;DHT22;24380;51.132;5.360;2023-04-04T11:20:21;15.80;73.70
38622;DHT22;24380;51.132;5.360;2023-04-04T11:22:50;16.00;74.20
38622;DHT22;24380;51.132;5.360;2023-04-04T11:25:36;15.40;72.20
38622;DHT22;24380;51.132;5.360;2023-04-04T11:28:06;15.80;72.00
38622;DHT22;24380;51.132;5.360;2023-04-04T11:30:40;16.60;70.90
38622;DHT22;24380;51.132;5.360;2023-04-04T11:33:11;16.30;70.40
38622;DHT22;24380;51.132;5.360;2023-04-04T11:35:45;16.20;70.80
38622;DHT22;24380;51.132;5.360;2023-04-04T11:38:14;16.10;71.60
38622;DHT22;24380;51.132;5.360;2023-04-04T11:40:52;15.90;74.10
38622;DHT22;24380;51.132;5.360;2023-04-04T11:43:20;16.50;73.90
38622;DHT22;24380;51.132;5.360;2023-04-04T11:45:48;16.60;73.00
38622;DHT22;24380;51.132;5.360;2023-04-04T11:48:18;16.70;73.30
38622;DHT22;24380;51.132;5.360;2023-04-04T11:50:47;16.50;69.90
38622;DHT22;24380;51.132;5.360;2023-04-04T11:53:17;16.50;69.30
38622;DHT22;24380;51.132;5.360;2023-04-04T11:55:48;16.70;70.10
38622;DHT22;24380;51.132;5.360;2023-04-04T11:58:16;16.50;71.70
38622;DHT22;24380;51.132;5.360;2023-04-04T12:00:44;15.90;70.40
38622;DHT22;24380;51.132;5.360;2023-04-04T12:03:13;15.40;70.40
38622;DHT22;24380;51.132;5.360;2023-04-04T12:05:43;15.10;72.00
38622;DHT22;24380;51.132;5.360;2023-04-04T12:08:11;14.40;72.50
38622;DHT22;24380;51.132;5.360;2023-04-04T12:10:39;14.00;72.60
38622;DHT22;24380;51.132;5.360;2023-04-04T12:13:08;14.00;73.90
38622;DHT22;24380;51.132;5.360;2023-04-04T12:15:37;13.90;75.30
38622;DHT22;24380;51.132;5.360;2023-04-04T12:18:08;13.50;74.20
38622;DHT22;24380;51.132;5.360;2023-04-04T12:20:39;13.50;76.40
38622;DHT22;24380;51.132;5.360;2023-04-04T12:23:06;13.50;75.40
38622;DHT22;24380;51.132;5.360;2023-04-04T12:25:36;13.50;76.20
38622;DHT22;24380;51.132;5.360;2023-04-04T12:28:05;13.20;75.70
38622;DHT22;24380;51.132;5.360;2023-04-04T12:30:33;13.00;76.80
38622;DHT22;24380;51.132;5.360;2023-04-04T12:33:01;12.60;77.50
38622;DHT22;24380;51.132;5.360;2023-04-04T12:35:29;12.70;76.60
38622;DHT22;24380;51.132;5.360;2023-04-04T12:37:59;12.90;76.30
38622;DHT22;24380;51.132;5.360;2023-04-04T12:40:32;12.70;75.50
38622;DHT22;24380;51.132;5.360;2023-04-04T12:43:07;12.60;76.70
38622;DHT22;24380;51.132;5.360;2023-04-04T12:45:38;12.60;79.40
38622;DHT22;24380;51.132;5.360;2023-04-04T12:48:08;12.50;79.20
38622;DHT22;24380;51.132;5.360;2023-04-04T12:50:52;12.20;80.70
38622;DHT22;24380;51.132;5.360;2023-04-04T12:53:18;12.10;81.50
38622;DHT22;24380;51.132;5.360;2023-04-04T12:55:48;12.00;80.00
38622;DHT22;24380;51.132;5.360;2023-04-04T12:58:21;12.20;78.80
38622;DHT22;24380;51.132;5.360;2023-04-04T13:00:50;12.50;80.10
38622;DHT22;24380;51.132;5.360;2023-04-04T13:03:25;12.50;79.70
38622;DHT22;24380;51.132;5.360;2023-04-04T13:05:50;12.50;81.60
38622;DHT22;24380;51.132;5.360;2023-04-04T13:08:20;12.70;79.50
38622;DHT22;24380;51.132;5.360;2023-04-04T13:13:32;12.80;79.40
38622;DHT22;24380;51.132;5.360;2023-04-04T13:16:01;12.70;80.70
38622;DHT22;24380;51.132;5.360;2023-04-04T13:18:41;12.70;80.10
38622;DHT22;24380;51.132;5.360;2023-04-04T13:21:10;12.80;79.90
38622;DHT22;24380;51.132;5.360;2023-04-04T13:23:40;12.90;80.80
38622;DHT22;24380;51.132;5.360;2023-04-04T13:26:09;12.90;81.30
38622;DHT22;24380;51.132;5.360;2023-04-04T13:28:37;13.00;80.70
38622;DHT22;24380;51.132;5.360;2023-04-04T13:31:06;13.10;78.80
38622;DHT22;24380;51.132;5.360;2023-04-04T13:33:34;13.30;78.20
38622;DHT22;24380;51.132;5.360;2023-04-04T13:36:02;13.50;78.60
38622;DHT22;24380;51.132;5.360;2023-04-04T13:38:30;13.50;78.70
38622;DHT22;24380;51.132;5.360;2023-04-04T13:40:58;13.10;76.70
38622;DHT22;24380;51.132;5.360;2023-04-04T13:43:26;13.00;78.50
38622;DHT22;24380;51.132;5.360;2023-04-04T13:45:54;12.80;78.90
38622;DHT22;24380;51.132;5.360;2023-04-04T13:48:21;12.70;80.10
38622;DHT22;24380;51.132;5.360;2023-04-04T13:50:49;12.90;79.90
38622;DHT22;24380;51.132;5.360;2023-04-04T13:53:20;12.70;77.90
38622;DHT22;24380;51.132;5.360;2023-04-04T13:55:48;12.80;79.70
38622;DHT22;24380;51.132;5.360;2023-04-04T13:58:16;12.70;78.20
38622;DHT22;24380;51.132;5.360;2023-04-04T14:00:47;12.60;77.40
38622;DHT22;24380;51.132;5.360;2023-04-04T14:03:15;12.50;78.40
38622;DHT22;24380;51.132;5.360;2023-04-04T14:05:43;12.20;78.90
38622;DHT22;24380;51.132;5.360;2023-04-04T14:08:11;12.10;77.40
38622;DHT22;24380;51.132;5.360;2023-04-04T14:10:40;12.00;76.50
38622;DHT22;24380;51.132;5.360;2023-04-04T14:13:07;12.20;79.10
38622;DHT22;24380;51.132;5.360;2023-04-04T14:15:35;12.30;77.50
38622;DHT22;24380;51.132;5.360;2023-04-04T14:18:02;12.40;79.70
38622;DHT22;24380;51.132;5.360;2023-04-04T14:20:30;12.30;80.00
38622;DHT22;24380;51.132;5.360;2023-04-04T14:22:57;12.40;78.00
38622;DHT22;24380;51.132;5.360;2023-04-04T14:25:25;12.20;75.00
38622;DHT22;24380;51.132;5.360;2023-04-04T14:27:52;12.10;80.40
38622;DHT22;24380;51.132;5.360;2023-04-04T14:30:20;12.20;78.50
38622;DHT22;24380;51.132;5.360;2023-04-04T14:32:47;12.00;76.50
38622;DHT22;24380;51.132;5.360;2023-04-04T14:35:16;11.90;80.80
38622;DHT22;24380;51.132;5.360;2023-04-04T14:37:44;12.00;79.50
38622;DHT22;24380;51.132;5.360;2023-04-04T14:40:11;11.70;77.30
38622;DHT22;24380;51.132;5.360;2023-04-04T14:42:39;11.70;80.50
38622;DHT22;24380;51.132;5.360;2023-04-04T14:45:07;11.60;76.40
38622;DHT22;24380;51.132;5.360;2023-04-04T14:47:37;11.60;76.90
38622;DHT22;24380;51.132;5.360;2023-04-04T14:50:05;11.60;77.10
38622;DHT22;24380;51.132;5.360;2023-04-04T14:52:33;11.60;77.40
38622;DHT22;24380;51.132;5.360;2023-04-04T14:55:01;11.60;79.80
38622;DHT22;24380;51.132;5.360;2023-04-04T14:57:29;11.60;79.80
38622;DHT22;24380;51.132;5.360;2023-04-04T14:59:56;11.50;79.10
38622;DHT22;24380;51.132;5.360;2023-04-04T15:02:24;11.50;79.10
38622;DHT22;24380;51.132;5.360;2023-04-04T15:04:51;11.70;79.80
38622;DHT22;24380;51.132;5.360;2023-04-04T15:07:19;11.70;78.60
38622;DHT22;24380;51.132;5.360;2023-04-04T15:09:48;11.40;77.90
38622;DHT22;24380;51.132;5.360;2023-04-04T15:12:16;11.40;77.40
38622;DHT22;24380;51.132;5.360;2023-04-04T15:14:43;11.40;78.70
38622;DHT22;24380;51.132;5.360;2023-04-04T15:17:11;11.50;81.00
38622;DHT22;24380;51.132;5.360;2023-04-04T15:19:39;11.40;77.90
38622;DHT22;24380;51.132;5.360;2023-04-04T15:22:07;11.40;77.90
38622;DHT22;24380;51.132;5.360;2023-04-04T15:24:34;11.40;77.30
38622;DHT22;24380;51.132;5.360;2023-04-04T15:27:02;11.50;79.10
38622;DHT22;24380;51.132;5.360;2023-04-04T15:29:29;11.50;77.70
38622;DHT22;24380;51.132;5.360;2023-04-04T15:31:57;11.50;79.00
38622;DHT22;24380;51.132;5.360;2023-04-04T15:34:24;11.60;80.20
38622;DHT22;24380;51.132;5.360;2023-04-04T15:36:52;11.50;80.00
38622;DHT22;24380;51.132;5.360;2023-04-04T15:39:20;11.40;80.10
38622;DHT22;24380;51.132;5.360;2023-04-04T15:41:48;11.40;79.70
38622;DHT22;24380;51.132;5.360;2023-04-04T15:44:15;11.30;79.90
38622;DHT22;24380;51.132;5.360;2023-04-04T15:46:43;11.40;81.50
38622;DHT22;24380;51.132;5.360;2023-04-04T15:49:10;11.40;81.50
38622;DHT22;24380;51.132;5.360;2023-04-04T15:51:38;11.30;79.00
38622;DHT22;24380;51.132;5.360;2023-04-04T15:54:07;11.50;80.50
38622;DHT22;24380;51.132;5.360;2023-04-04T15:56:34;11.40;79.60
38622;DHT22;24380;51.132;5.360;2023-04-04T15:59:04;11.50;80.00
38622;DHT22;24380;51.132;5.360;2023-04-04T16:01:33;11.30;81.60
38622;DHT22;24380;51.132;5.360;2023-04-04T16:04:00;11.10;80.30
38622;DHT22;24380;51.132;5.360;2023-04-04T16:06:28;11.20;79.90
38622;DHT22;24380;51.132;5.360;2023-04-04T16:08:56;11.10;80.20
38622;DHT22;24380;51.132;5.360;2023-04-04T16:11:24;11.10;81.50
38622;DHT22;24380;51.132;5.360;2023-04-04T16:13:52;11.20;83.00
38622;DHT22;24380;51.132;5.360;2023-04-04T16:16:19;11.40;81.70
38622;DHT22;24380;51.132;5.360;2023-04-04T16:18:47;11.30;79.60
38622;DHT22;24380;51.132;5.360;2023-04-04T16:21:15;11.20;79.50
38622;DHT22;24380;51.132;5.360;2023-04-04T16:23:42;11.20;79.00
38622;DHT22;24380;51.132;5.360;2023-04-04T16:26:10;11.20;80.30
38622;DHT22;24380;51.132;5.360;2023-04-04T16:28:38;11.20;80.10
38622;DHT22;24380;51.132;5.360;2023-04-04T16:31:06;11.20;79.50
38622;DHT22;24380;51.132;5.360;2023-04-04T16:33:33;11.20;80.00
38622;DHT22;24380;51.132;5.360;2023-04-04T16:36:01;11.10;78.60
38622;DHT22;24380;51.132;5.360;2023-04-04T16:38:28;11.10;80.00
38622;DHT22;24380;51.132;5.360;2023-04-04T16:41:00;11.10;78.30
38622;DHT22;24380;51.132;5.360;2023-04-04T16:43:28;11.10;77.50
38622;DHT22;24380;51.132;5.360;2023-04-04T16:45:55;11.10;79.50
38622;DHT22;24380;51.132;5.360;2023-04-04T16:48:23;11.10;78.70
38622;DHT22;24380;51.132;5.360;2023-04-04T16:50:50;11.00;79.90
38622;DHT22;24380;51.132;5.360;2023-04-04T16:53:18;10.90;79.50
38622;DHT22;24380;51.132;5.360;2023-04-04T16:55:45;10.80;78.70
38622;DHT22;24380;51.132;5.360;2023-04-04T16:58:13;10.80;79.00
38622;DHT22;24380;51.132;5.360;2023-04-04T17:00:40;10.70;79.60
38622;DHT22;24380;51.132;5.360;2023-04-04T17:03:08;10.70;79.80
38622;DHT22;24380;51.132;5.360;2023-04-04T17:05:36;10.70;79.20
38622;DHT22;24380;51.132;5.360;2023-04-04T17:08:03;10.70;80.30
38622;DHT22;24380;51.132;5.360;2023-04-04T17:10:32;10.70;80.00
38622;DHT22;24380;51.132;5.360;2023-04-04T17:12:59;10.70;81.20
38622;DHT22;24380;51.132;5.360;2023-04-04T17:15:27;10.70;81.60
38622;DHT22;24380;51.132;5.360;2023-04-04T17:17:55;10.70;80.80
38622;DHT22;24380;51.132;5.360;2023-04-04T17:20:22;10.60;81.80
38622;DHT22;24380;51.132;5.360;2023-04-04T17:22:50;10.50;81.70
38622;DHT22;24380;51.132;5.360;2023-04-04T17:25:18;10.50;80.90
38622;DHT22;24380;51.132;5.360;2023-04-04T17:27:50;10.50;81.30
38622;DHT22;24380;51.132;5.360;2023-04-04T17:30:18;10.50;81.60
38622;DHT22;24380;51.132;5.360;2023-04-04T17:32:46;10.50;82.70
38622;DHT22;24380;51.132;5.360;2023-04-04T17:35:14;10.40;83.70
38622;DHT22;24380;51.132;5.360;2023-04-04T17:37:42;10.50;83.70
38622;DHT22;24380;51.132;5.360;2023-04-04T17:40:10;10.40;84.10
38622;DHT22;24380;51.132;5.360;2023-04-04T17:42:38;10.40;83.80
38622;DHT22;24380;51.132;5.360;2023-04-04T17:45:07;10.20;83.20
38622;DHT22;24380;51.132;5.360;2023-04-04T17:47:35;10.20;84.40
38622;DHT22;24380;51.132;5.360;2023-04-04T17:50:03;10.20;83.50
38622;DHT22;24380;51.132;5.360;2023-04-04T17:52:30;10.20;83.60
38622;DHT22;24380;51.132;5.360;2023-04-04T17:54:58;10.20;84.90
38622;DHT22;24380;51.132;5.360;2023-04-04T17:57:26;10.30;85.00
38622;DHT22;24380;51.132;5.360;2023-04-04T17:59:53;10.30;83.80
38622;DHT22;24380;51.132;5.360;2023-04-04T18:02:22;10.20;85.50
38622;DHT22;24380;51.132;5.360;2023-04-04T18:04:50;10.10;85.70
38622;DHT22;24380;51.132;5.360;2023-04-04T18:07:17;10.10;85.50
38622;DHT22;24380;51.132;5.360;2023-04-04T18:09:45;10.10;88.20
38622;DHT22;24380;51.132;5.360;2023-04-04T18:12:12;10.10;87.50
38622;DHT22;24380;51.132;5.360;2023-04-04T18:14:41;10.00;87.70
38622;DHT22;24380;51.132;5.360;2023-04-04T18:17:08;10.00;87.40
38622;DHT22;24380;51.132;5.360;2023-04-04T18:19:36;10.00;87.90
38622;DHT22;24380;51.132;5.360;2023-04-04T18:22:04;10.00;87.10
38622;DHT22;24380;51.132;5.360;2023-04-04T18:24:31;9.90;90.80
38622;DHT22;24380;51.132;5.360;2023-04-04T18:26:59;9.90;88.40
38622;DHT22;24380;51.132;5.360;2023-04-04T18:29:26;9.80;88.40
38622;DHT22;24380;51.132;5.360;2023-04-04T18:31:58;9.80;89.70
38622;DHT22;24380;51.132;5.360;2023-04-04T18:34:24;9.70;90.20
38622;DHT22;24380;51.132;5.360;2023-04-04T18:36:52;9.60;91.20
38622;DHT22;24380;51.132;5.360;2023-04-04T18:39:19;9.60;90.80
38622;DHT22;24380;51.132;5.360;2023-04-04T18:41:47;9.50;91.00
38622;DHT22;24380;51.132;5.360;2023-04-04T18:44:15;9.50;91.80
38622;DHT22;24380;51.132;5.360;2023-04-04T18:46:43;9.30;91.40
38622;DHT22;24380;51.132;5.360;2023-04-04T18:49:11;9.40;91.80
38622;DHT22;24380;51.132;5.360;2023-04-04T18:51:38;9.40;91.70
38622;DHT22;24380;51.132;5.360;2023-04-04T18:54:06;9.30;92.10
38622;DHT22;24380;51.132;5.360;2023-04-04T18:56:33;9.20;92.50
38622;DHT22;24380;51.132;5.360;2023-04-04T18:59:01;9.10;92.80
38622;DHT22;24380;51.132;5.360;2023-04-04T19:01:29;9.00;93.10
38622;DHT22;24380;51.132;5.360;2023-04-04T19:03:57;8.90;93.60
38622;DHT22;24380;51.132;5.360;2023-04-04T19:06:25;8.90;93.60
38622;DHT22;24380;51.132;5.360;2023-04-04T19:08:53;8.80;93.20
38622;DHT22;24380;51.132;5.360;2023-04-04T19:11:23;8.70;94.60
38622;DHT22;24380;51.132;5.360;2023-04-04T19:13:51;8.70;94.60
38622;DHT22;24380;51.132;5.360;2023-04-04T19:16:18;8.50;95.10
38622;DHT22;24380;51.132;5.360;2023-04-04T19:18:46;8.50;95.00
38622;DHT22;24380;51.132;5.360;2023-04-04T19:21:13;8.50;94.90
38622;DHT22;24380;51.132;5.360;2023-04-04T19:23:41;8.40;94.50
38622;DHT22;24380;51.132;5.360;2023-04-04T19:26:08;8.40;94.80
38622;DHT22;24380;51.132;5.360;2023-04-04T19:28:36;8.30;94.90
38622;DHT22;24380;51.132;5.360;2023-04-04T19:31:06;8.30;95.00
38622;DHT22;24380;51.132;5.360;2023-04-04T19:33:35;8.20;94.90
38622;DHT22;24380;51.132;5.360;2023-04-04T19:36:08;8.10;94.70
38622;DHT22;24380;51.132;5.360;2023-04-04T19:38:39;8.10;95.50
38622;DHT22;24380;51.132;5.360;2023-04-04T19:41:11;8.00;95.70
38622;DHT22;24380;51.132;5.360;2023-04-04T19:43:41;7.90;95.30
38622;DHT22;24380;51.132;5.360;2023-04-04T19:46:12;7.80;95.40
38622;DHT22;24380;51.132;5.360;2023-04-04T19:53:44;7.50;96.90
38622;DHT22;24380;51.132;5.360;2023-04-04T19:56:14;7.50;97.00
38622;DHT22;24380;51.132;5.360;2023-04-04T19:58:42;7.40;96.90
38622;DHT22;24380;51.132;5.360;2023-04-04T20:01:12;7.30;97.30
38622;DHT22;24380;51.132;5.360;2023-04-04T20:03:40;7.30;97.50
38622;DHT22;24380;51.132;5.360;2023-04-04T20:06:25;7.30;97.50
38622;DHT22;24380;51.132;5.360;2023-04-04T20:08:55;7.20;98.60
38622;DHT22;24380;51.132;5.360;2023-04-04T20:11:28;7.10;99.90
38622;DHT22;24380;51.132;5.360;2023-04-04T20:13:57;6.90;99.90
38622;DHT22;24380;51.132;5.360;2023-04-04T20:16:26;6.80;99.90
38622;DHT22;24380;51.132;5.360;2023-04-04T20:18:55;6.70;99.90
38622;DHT22;24380;51.132;5.360;2023-04-04T20:21:27;6.70;99.90
38622;DHT22;24380;51.132;5.360;2023-04-04T20:23:58;6.80;99.90
38622;DHT22;24380;51.132;5.360;2023-04-04T20:29:36;6.70;99.90
38622;DHT22;24380;51.132;5.360;2023-04-04T20:31:52;6.50;99.90
38622;DHT22;24380;51.132;5.360;2023-04-04T20:34:43;6.30;99.90
38622;DHT22;24380;51.132;5.360;2023-04-04T20:37:17;6.10;99.90
38622;DHT22;24380;51.132;5.360;2023-04-04T20:39:57;5.90;99.90
38622;DHT22;24380;51.132;5.360;2023-04-04T20:45:44;5.80;99.90
38622;DHT22;24380;51.132;5.360;2023-04-04T20:51:31;5.70;99.90
38622;DHT22;24380;51.132;5.360;2023-04-04T20:54:00;5.80;99.90
38622;DHT22;24380;51.132;5.360;2023-04-04T20:59:30;5.90;99.90
38622;DHT22;24380;51.132;5.360;2023-04-04T21:02:06;5.70;99.90
38622;DHT22;24380;51.132;5.360;2023-04-04T21:04:34;5.60;99.90
38622;DHT22;24380;51.132;5.360;2023-04-04T21:07:03;5.60;99.90
38622;DHT22;24380;51.132;5.360;2023-04-04T21:09:31;5.60;99.90
38622;DHT22;24380;51.132;5.360;2023-04-04T21:11:59;5.60;99.90
38622;DHT22;24380;51.132;5.360;2023-04-04T21:14:34;5.70;99.90
38622;DHT22;24380;51.132;5.360;2023-04-04T21:17:05;5.70;99.90
38622;DHT22;24380;51.132;5.360;2023-04-04T21:19:33;5.70;99.90
38622;DHT22;24380;51.132;5.360;2023-04-04T21:22:00;5.60;99.90
38622;DHT22;24380;51.132;5.360;2023-04-04T21:24:30;5.40;99.90
38622;DHT22;24380;51.132;5.360;2023-04-04T21:26:59;5.30;99.90
38622;DHT22;24380;51.132;5.360;2023-04-04T21:29:28;5.30;99.90
38622;DHT22;24380;51.132;5.360;2023-04-04T21:31:56;5.10;99.90
38622;DHT22;24380;51.132;5.360;2023-04-04T21:34:26;5.00;99.90
38622;DHT22;24380;51.132;5.360;2023-04-04T21:36:58;5.00;99.90
38622;DHT22;24380;51.132;5.360;2023-04-04T21:39:26;5.00;99.90
38622;DHT22;24380;51.132;5.360;2023-04-04T21:42:01;4.90;99.90
38622;DHT22;24380;51.132;5.360;2023-04-04T21:44:30;4.70;99.90
38622;DHT22;24380;51.132;5.360;2023-04-04T21:46:57;4.70;99.90
38622;DHT22;24380;51.132;5.360;2023-04-04T21:49:25;4.50;99.90
38622;DHT22;24380;51.132;5.360;2023-04-04T21:51:52;4.40;99.90
38622;DHT22;24380;51.132;5.360;2023-04-04T21:54:20;4.50;99.90
38622;DHT22;24380;51.132;5.360;2023-04-04T21:56:47;4.60;99.90
38622;DHT22;24380;51.132;5.360;2023-04-04T21:59:15;4.60;99.90
38622;DHT22;24380;51.132;5.360;2023-04-04T22:01:42;4.60;99.90
38622;DHT22;24380;51.132;5.360;2023-04-04T22:04:10;4.50;99.90
38622;DHT22;24380;51.132;5.360;2023-04-04T22:06:37;4.50;99.90
38622;DHT22;24380;51.132;5.360;2023-04-04T22:09:05;4.50;99.90
38622;DHT22;24380;51.132;5.360;2023-04-04T22:11:32;4.40;99.90
38622;DHT22;24380;51.132;5.360;2023-04-04T22:14:02;4.20;99.90
38622;DHT22;24380;51.132;5.360;2023-04-04T22:16:29;4.10;99.90
38622;DHT22;24380;51.132;5.360;2023-04-04T22:18:58;4.10;99.90
38622;DHT22;24380;51.132;5.360;2023-04-04T22:21:26;4.00;99.90
38622;DHT22;24380;51.132;5.360;2023-04-04T22:23:55;3.90;99.90
38622;DHT22;24380;51.132;5.360;2023-04-04T22:26:26;3.80;99.90
38622;DHT22;24380;51.132;5.360;2023-04-04T22:29:01;3.70;99.90
38622;DHT22;24380;51.132;5.360;2023-04-04T22:31:29;3.70;99.90
38622;DHT22;24380;51.132;5.360;2023-04-04T22:33:56;3.60;99.90
38622;DHT22;24380;51.132;5.360;2023-04-04T22:36:24;3.50;99.90
38622;DHT22;24380;51.132;5.360;2023-04-04T22:38:51;3.50;99.90
38622;DHT22;24380;51.132;5.360;2023-04-04T22:41:24;3.60;99.90
38622;DHT22;24380;51.132;5.360;2023-04-04T22:43:54;3.40;99.90